createdAt,value
2014-10-03T00:00:47.730Z,15.31
2014-10-03T00:01:52.420Z,15.53
2014-10-03T00:02:57.125Z,15.82
2014-10-03T00:04:01.830Z,16.01
2014-10-03T00:05:06.535Z,16.03
2014-10-03T00:06:11.225Z,16.09
2014-10-03T00:07:15.931Z,16.2
2014-10-03T00:08:20.917Z,15.71
2014-10-03T00:09:25.621Z,15.88
2014-10-03T00:10:30.312Z,15.45
2014-10-03T00:11:35.016Z,15.27
2014-10-03T00:12:39.705Z,15.13
2014-10-03T00:13:44.411Z,15.05
2014-10-03T00:14:49.117Z,15.01
2014-10-03T00:15:53.822Z,14.9
2014-10-03T00:16:58.527Z,14.92
2014-10-03T00:18:03.232Z,14.81
2014-10-03T00:19:07.938Z,15.05
2014-10-03T00:20:12.642Z,15.44
2014-10-03T00:21:17.347Z,15.54
2014-10-03T00:22:22.069Z,15.31
2014-10-03T00:23:26.758Z,15.02
2014-10-03T00:24:31.464Z,15
2014-10-03T00:25:36.450Z,15.56
2014-10-03T00:26:41.452Z,15.58
2014-10-03T00:27:46.157Z,15.24
2014-10-03T00:28:50.878Z,15.3
2014-10-03T00:29:55.583Z,15.14
2014-10-03T00:31:00.273Z,15
2014-10-03T00:32:04.978Z,14.88
2014-10-03T00:33:09.683Z,15.02
2014-10-03T00:34:14.388Z,14.9
2014-10-03T00:35:19.374Z,14.88
2014-10-03T00:36:24.080Z,14.77
2014-10-03T00:37:28.786Z,14.79
2014-10-03T00:38:33.491Z,14.77
2014-10-03T00:39:38.179Z,14.97
2014-10-03T00:40:42.884Z,15.03
2014-10-03T00:41:47.589Z,14.86
2014-10-03T00:42:52.296Z,14.64
2014-10-03T00:43:57.001Z,14.72
2014-10-03T00:45:01.018Z,14.66
2014-10-03T00:46:05.739Z,14.59
2014-10-03T00:47:10.429Z,14.6
2014-10-03T00:48:15.134Z,14.64
2014-10-03T00:49:19.839Z,14.52
2014-10-03T00:50:24.544Z,14.54
2014-10-03T00:51:29.530Z,14.52
2014-10-03T00:52:34.235Z,14.44
2014-10-03T00:53:38.941Z,14.72
2014-10-03T00:54:43.661Z,14.7
2014-10-03T00:55:48.352Z,14.59
2014-10-03T00:56:53.057Z,14.47
2014-10-03T00:57:58.042Z,14.47
2014-10-03T00:59:02.733Z,14.5
2014-10-03T01:00:07.438Z,14.52
2014-10-03T01:01:12.127Z,14.58
2014-10-03T01:02:16.833Z,14.54
2014-10-03T01:03:21.523Z,14.44
2014-10-03T01:04:26.212Z,14.29
2014-10-03T01:05:30.918Z,14.34
2014-10-03T01:06:35.606Z,14.49
2014-10-03T01:07:40.608Z,14.44
2014-10-03T01:08:44.610Z,14.39
2014-10-03T01:09:49.301Z,14.38
2014-10-03T01:10:54.006Z,14.36
2014-10-03T01:11:58.991Z,14.4
2014-10-03T01:13:03.682Z,14.72
2014-10-03T01:14:08.668Z,14.84
2014-10-03T01:15:13.670Z,14.9
2014-10-03T01:16:18.360Z,14.66
2014-10-03T01:17:23.065Z,14.27
2014-10-03T01:18:27.754Z,14.63
2014-10-03T01:19:32.444Z,14.94
2014-10-03T01:20:37.149Z,14.98
2014-10-03T01:21:42.135Z,15.32
2014-10-03T01:22:46.840Z,15.51
2014-10-03T01:23:51.531Z,15.75
2014-10-03T01:24:56.252Z,15.7
2014-10-03T01:26:00.941Z,15.06
2014-10-03T01:27:05.631Z,14.78
2014-10-03T01:28:10.336Z,14.6
2014-10-03T01:29:15.024Z,14.44
2014-10-03T01:30:19.730Z,14.39
2014-10-03T01:31:24.420Z,14.39
2014-10-03T01:32:29.125Z,14.94
2014-10-03T01:33:33.814Z,15.1
2014-10-03T01:34:38.504Z,15.21
2014-10-03T01:35:43.506Z,15.24
2014-10-03T01:36:48.195Z,15.3
2014-10-03T01:37:53.183Z,15.3
2014-10-03T01:38:57.887Z,15.24
2014-10-03T01:40:02.576Z,15.18
2014-10-03T01:41:07.267Z,14.84
2014-10-03T01:42:12.268Z,14.72
2014-10-03T01:43:16.958Z,14.88
2014-10-03T01:44:21.945Z,14.65
2014-10-03T01:45:26.946Z,14.58
2014-10-03T01:46:31.933Z,14.54
2014-10-03T01:47:36.638Z,14.34
2014-10-03T01:48:41.328Z,14.38
2014-10-03T01:49:46.049Z,14.38
2014-10-03T01:50:51.036Z,14.38
2014-10-03T01:51:55.740Z,14.29
2014-10-03T01:53:00.430Z,14.21
2014-10-03T01:54:05.417Z,14.23
2014-10-03T01:55:10.121Z,14.19
2014-10-03T01:56:14.812Z,14.22
2014-10-03T01:57:19.798Z,14.2
2014-10-03T01:58:24.487Z,14.14
2014-10-03T01:59:29.193Z,14.12
2014-10-03T02:00:33.882Z,14.28
2014-10-03T02:01:38.587Z,14.52
2014-10-03T02:02:43.277Z,14.28
2014-10-03T02:03:47.982Z,14.19
2014-10-03T02:04:52.968Z,14.14
2014-10-03T02:05:57.690Z,14.16
2014-10-03T02:07:02.456Z,13.94
2014-10-03T02:08:07.193Z,13.96
2014-10-03T02:09:11.241Z,14.05
2014-10-03T02:10:15.992Z,14.33
2014-10-03T02:11:20.698Z,14.81
2014-10-03T02:12:25.420Z,14.91
2014-10-03T02:13:30.126Z,14.81
2014-10-03T02:14:34.145Z,14.5
2014-10-03T02:15:38.879Z,14.21
2014-10-03T02:16:43.574Z,14.09
2014-10-03T02:17:48.287Z,14.04
2014-10-03T02:18:52.998Z,13.99
2014-10-03T02:19:57.693Z,13.98
2014-10-03T02:21:02.401Z,13.92
2014-10-03T02:22:07.391Z,13.88
2014-10-03T02:23:12.097Z,13.94
2014-10-03T02:24:16.788Z,14
2014-10-03T02:25:21.481Z,13.98
2014-10-03T02:26:26.187Z,13.91
2014-10-03T02:27:30.892Z,13.83
2014-10-03T02:28:35.583Z,13.85
2014-10-03T02:29:40.290Z,14
2014-10-03T02:30:44.978Z,13.97
2014-10-03T02:31:48.997Z,13.94
2014-10-03T02:32:53.702Z,13.96
2014-10-03T02:33:58.407Z,14.02
2014-10-03T02:35:03.112Z,14.34
2014-10-03T02:36:07.802Z,14.69
2014-10-03T02:37:12.507Z,14.77
2014-10-03T02:38:17.213Z,14.61
2014-10-03T02:39:21.933Z,14.72
2014-10-03T02:40:26.638Z,14.67
2014-10-03T02:41:31.343Z,14.46
2014-10-03T02:42:36.049Z,14.52
2014-10-03T02:43:40.754Z,14.56
2014-10-03T02:44:45.459Z,14.78
2014-10-03T02:45:50.446Z,14.28
2014-10-03T02:46:55.448Z,14.16
2014-10-03T02:48:00.153Z,14.08
2014-10-03T02:49:04.858Z,13.96
2014-10-03T02:50:09.563Z,13.98
2014-10-03T02:51:14.253Z,14
2014-10-03T02:52:18.958Z,13.92
2014-10-03T02:53:23.945Z,13.86
2014-10-03T02:54:28.947Z,13.92
2014-10-03T02:55:33.651Z,13.92
2014-10-03T02:56:38.357Z,13.92
2014-10-03T02:57:43.062Z,13.95
2014-10-03T02:58:47.768Z,13.85
2014-10-03T02:59:52.754Z,13.82
2014-10-03T03:00:57.459Z,13.84
2014-10-03T03:02:02.180Z,13.76
2014-10-03T03:03:06.885Z,13.78
2014-10-03T03:04:11.871Z,13.82
2014-10-03T03:05:16.873Z,13.79
2014-10-03T03:06:21.578Z,13.84
2014-10-03T03:07:26.285Z,14.2
2014-10-03T03:08:30.990Z,14.42
2014-10-03T03:09:35.992Z,14.55
2014-10-03T03:10:40.680Z,14.22
2014-10-03T03:11:45.386Z,14.06
2014-10-03T03:12:50.076Z,13.99
2014-10-03T03:13:54.781Z,13.92
2014-10-03T03:14:59.470Z,13.76
2014-10-03T03:16:04.176Z,13.82
2014-10-03T03:17:08.865Z,13.72
2014-10-03T03:18:13.851Z,13.73
2014-10-03T03:19:18.557Z,13.67
2014-10-03T03:20:23.247Z,13.6
2014-10-03T03:21:27.951Z,13.61
2014-10-03T03:22:32.641Z,13.63
2014-10-03T03:23:37.330Z,13.62
2014-10-03T03:24:42.332Z,13.55
2014-10-03T03:25:47.023Z,13.54
2014-10-03T03:26:51.711Z,13.49
2014-10-03T03:27:56.417Z,13.35
2014-10-03T03:29:01.107Z,13.4
2014-10-03T03:30:05.811Z,13.46
2014-10-03T03:31:10.501Z,13.5
2014-10-03T03:32:15.191Z,13.48
2014-10-03T03:33:19.896Z,13.4
2014-10-03T03:34:24.882Z,13.44
2014-10-03T03:35:29.572Z,13.42
2014-10-03T03:36:34.278Z,13.56
2014-10-03T03:37:38.967Z,13.94
2014-10-03T03:38:43.672Z,13.69
2014-10-03T03:39:48.361Z,13.64
2014-10-03T03:40:53.348Z,14.03
2014-10-03T03:41:58.054Z,13.92
2014-10-03T03:43:03.040Z,14.44
2014-10-03T03:44:07.745Z,14.6
2014-10-03T03:45:12.435Z,14.62
2014-10-03T03:46:17.139Z,14.76
2014-10-03T03:47:21.829Z,14.6
2014-10-03T03:48:26.534Z,14.6
2014-10-03T03:49:31.224Z,14.27
2014-10-03T03:50:35.929Z,14
2014-10-03T03:51:40.619Z,13.86
2014-10-03T03:52:45.309Z,13.72
2014-10-03T03:53:50.310Z,13.66
2014-10-03T03:54:55.015Z,13.55
2014-10-03T03:56:00.002Z,13.52
2014-10-03T03:57:04.692Z,13.43
2014-10-03T03:58:09.396Z,13.4
2014-10-03T03:59:14.102Z,13.47
2014-10-03T04:00:18.792Z,13.5
2014-10-03T04:01:23.481Z,13.36
2014-10-03T04:02:28.186Z,13.4
2014-10-03T04:03:32.876Z,13.45
2014-10-03T04:04:37.565Z,13.42
2014-10-03T04:05:41.583Z,13.48
2014-10-03T04:06:46.273Z,13.42
2014-10-03T04:07:50.963Z,13.34
2014-10-03T04:08:55.667Z,13.34
2014-10-03T04:10:00.357Z,13.39
2014-10-03T04:11:05.046Z,13.46
2014-10-03T04:12:09.752Z,13.27
2014-10-03T04:13:14.739Z,13.31
2014-10-03T04:14:19.038Z,13.54
2014-10-03T04:15:23.727Z,13.68
2014-10-03T04:16:28.432Z,13.64
2014-10-03T04:17:33.137Z,13.89
2014-10-03T04:18:37.858Z,14.25
2014-10-03T04:19:42.548Z,14.44
2014-10-03T04:20:47.238Z,14.08
2014-10-03T04:21:51.942Z,13.68
2014-10-03T04:22:55.944Z,13.55
2014-10-03T04:24:00.649Z,13.9
2014-10-03T04:25:05.636Z,14.06
2014-10-03T04:26:10.341Z,13.8
2014-10-03T04:27:15.030Z,13.51
2014-10-03T04:28:19.735Z,13.34
2014-10-03T04:29:24.426Z,13.25
2014-10-03T04:30:29.427Z,13.25
2014-10-03T04:31:34.117Z,13.26
2014-10-03T04:32:38.823Z,13.32
2014-10-03T04:33:43.528Z,13.26
2014-10-03T04:34:48.530Z,13.31
2014-10-03T04:35:53.219Z,13.41
2014-10-03T04:36:57.924Z,13.82
2014-10-03T04:38:02.629Z,13.48
2014-10-03T04:39:07.617Z,13.39
2014-10-03T04:40:12.322Z,13.35
2014-10-03T04:41:17.027Z,13.44
2014-10-03T04:42:21.731Z,13.38
2014-10-03T04:43:26.437Z,13.29
2014-10-03T04:44:31.157Z,13.57
2014-10-03T04:45:35.863Z,13.56
2014-10-03T04:46:40.568Z,13.37
2014-10-03T04:47:45.273Z,13.28
2014-10-03T04:48:49.963Z,13.27
2014-10-03T04:49:54.668Z,13.28
2014-10-03T04:50:59.373Z,13.21
2014-10-03T04:52:04.078Z,13.16
2014-10-03T04:53:09.096Z,13.18
2014-10-03T04:54:13.801Z,13.12
2014-10-03T04:55:18.491Z,13.12
2014-10-03T04:56:23.197Z,13.12
2014-10-03T04:57:27.901Z,13.1
2014-10-03T04:58:32.590Z,13.04
2014-10-03T04:59:37.295Z,13.06
2014-10-03T05:00:42.002Z,13.02
2014-10-03T05:01:46.707Z,13.06
2014-10-03T05:02:51.395Z,13.05
2014-10-03T05:03:56.101Z,13
2014-10-03T05:05:00.806Z,12.94
2014-10-03T05:06:05.496Z,13.04
2014-10-03T05:07:10.202Z,13
2014-10-03T05:08:14.922Z,12.96
2014-10-03T05:09:19.611Z,13.02
2014-10-03T05:10:24.317Z,12.94
2014-10-03T05:11:29.007Z,12.98
2014-10-03T05:12:34.009Z,12.98
2014-10-03T05:13:38.713Z,13.04
2014-10-03T05:14:43.404Z,12.91
2014-10-03T05:15:48.109Z,13.04
2014-10-03T05:16:53.111Z,13.04
2014-10-03T05:17:57.831Z,13.09
2014-10-03T05:19:02.537Z,12.98
2014-10-03T05:20:07.226Z,12.91
2014-10-03T05:21:11.916Z,12.76
2014-10-03T05:22:16.622Z,12.86
2014-10-03T05:23:21.310Z,12.94
2014-10-03T05:24:26.015Z,12.9
2014-10-03T05:25:30.706Z,12.84
2014-10-03T05:26:35.394Z,13.17
2014-10-03T05:27:40.100Z,13.54
2014-10-03T05:28:44.790Z,13.44
2014-10-03T05:29:49.494Z,13.23
2014-10-03T05:30:54.185Z,13.12
2014-10-03T05:31:58.890Z,13.12
2014-10-03T05:33:03.578Z,13.06
2014-10-03T05:34:08.269Z,13.06
2014-10-03T05:35:12.974Z,13.07
2014-10-03T05:36:17.960Z,12.94
2014-10-03T05:37:22.665Z,12.84
2014-10-03T05:38:27.355Z,12.94
2014-10-03T05:39:32.060Z,13.06
2014-10-03T05:40:36.749Z,13.46
2014-10-03T05:41:41.456Z,13.57
2014-10-03T05:42:46.145Z,13.66
2014-10-03T05:43:50.896Z,13.82
2014-10-03T05:44:55.882Z,13.63
2014-10-03T05:46:00.589Z,13.26
2014-10-03T05:47:05.278Z,13.19
2014-10-03T05:48:09.999Z,13.12
2014-10-03T05:49:14.985Z,13.03
2014-10-03T05:50:19.675Z,13.08
2014-10-03T05:51:24.678Z,13.19
2014-10-03T05:52:29.366Z,13.11
2014-10-03T05:53:34.353Z,13.15
2014-10-03T05:54:39.043Z,13.12
2014-10-03T05:55:43.747Z,13.18
2014-10-03T05:56:48.438Z,13.2
2014-10-03T05:57:53.142Z,13.23
2014-10-03T05:58:58.128Z,13.2
2014-10-03T06:00:02.834Z,13.2
2014-10-03T06:01:07.821Z,13.19
2014-10-03T06:02:12.509Z,13.35
2014-10-03T06:03:17.200Z,13.46
2014-10-03T06:04:22.186Z,13.31
2014-10-03T06:05:26.891Z,13.31
2014-10-03T06:06:31.581Z,13.51
2014-10-03T06:07:36.568Z,13.54
2014-10-03T06:08:41.272Z,13.56
2014-10-03T06:09:45.977Z,13.66
2014-10-03T06:10:50.668Z,13.73
2014-10-03T06:11:55.356Z,13.65
2014-10-03T06:12:59.374Z,13.6
2014-10-03T06:14:04.064Z,13.8
2014-10-03T06:15:08.754Z,13.86
2014-10-03T06:16:13.739Z,13.91
2014-10-03T06:17:18.727Z,13.98
2014-10-03T06:18:23.431Z,13.9
2014-10-03T06:19:28.121Z,14
2014-10-03T06:20:33.109Z,14.15
2014-10-03T06:21:37.797Z,14.28
2014-10-03T06:22:42.784Z,14.42
2014-10-03T06:23:47.489Z,14.45
2014-10-03T06:24:52.178Z,14.55
2014-10-03T06:25:56.883Z,14.57
2014-10-03T06:27:01.574Z,14.69
2014-10-03T06:28:06.279Z,14.76
2014-10-03T06:29:10.983Z,14.68
2014-10-03T06:30:14.986Z,14.89
2014-10-03T06:31:19.972Z,15.04
2014-10-03T06:32:24.662Z,15.18
2014-10-03T06:33:29.367Z,15.26
2014-10-03T06:34:34.057Z,15.23
2014-10-03T06:35:38.762Z,15.1
2014-10-03T06:36:43.451Z,15.25
2014-10-03T06:37:48.156Z,15.34
2014-10-03T06:38:52.861Z,15.44
2014-10-03T06:39:57.864Z,15.58
2014-10-03T06:41:02.570Z,15.52
2014-10-03T06:42:07.275Z,15.66
2014-10-03T06:43:11.963Z,15.9
2014-10-03T06:44:16.669Z,15.96
2014-10-03T06:45:21.359Z,15.74
2014-10-03T06:46:26.064Z,15.53
2014-10-03T06:47:30.769Z,15.65
2014-10-03T06:48:35.459Z,15.82
2014-10-03T06:49:40.444Z,16.07
2014-10-03T06:50:45.149Z,16.31
2014-10-03T06:51:49.855Z,16.39
2014-10-03T06:52:54.560Z,16.63
2014-10-03T06:53:59.265Z,16.6
2014-10-03T06:55:03.970Z,16.74
2014-10-03T06:56:08.691Z,17.27
2014-10-03T06:57:13.380Z,17.76
2014-10-03T06:58:18.085Z,18.07
2014-10-03T06:59:22.790Z,17.65
2014-10-03T07:00:27.480Z,16.91
2014-10-03T07:01:32.201Z,16.51
2014-10-03T07:02:36.906Z,16.4
2014-10-03T07:03:41.893Z,16.47
2014-10-03T07:04:46.599Z,16.19
2014-10-03T07:05:51.304Z,15.98
2014-10-03T07:06:56.009Z,15.94
2014-10-03T07:08:00.714Z,15.91
2014-10-03T07:09:05.419Z,15.82
2014-10-03T07:10:10.126Z,15.45
2014-10-03T07:11:14.815Z,15.42
2014-10-03T07:12:19.519Z,15.44
2014-10-03T07:13:24.225Z,15.26
2014-10-03T07:14:28.929Z,15.35
2014-10-03T07:15:33.917Z,15.42
2014-10-03T07:16:38.622Z,15.35
2014-10-03T07:17:43.310Z,15.24
2014-10-03T07:18:48.017Z,15.06
2014-10-03T07:19:52.706Z,15.14
2014-10-03T07:20:57.708Z,15.04
2014-10-03T07:22:02.694Z,15.19
2014-10-03T07:23:07.385Z,14.96
2014-10-03T07:24:12.370Z,15.02
2014-10-03T07:25:17.076Z,14.92
2014-10-03T07:26:21.766Z,14.68
2014-10-03T07:27:26.470Z,14.58
2014-10-03T07:28:31.160Z,14.41
2014-10-03T07:29:35.850Z,14.4
2014-10-03T07:30:40.554Z,14.46
2014-10-03T07:31:45.542Z,14.43
2014-10-03T07:32:50.231Z,14.36
2014-10-03T07:33:54.935Z,14.28
2014-10-03T07:34:59.626Z,14.24
2014-10-03T07:36:04.331Z,14.18
2014-10-03T07:37:09.020Z,14.26
2014-10-03T07:38:13.710Z,13.87
2014-10-03T07:39:18.696Z,14.18
2014-10-03T07:40:23.401Z,14.34
2014-10-03T07:41:28.092Z,14.59
2014-10-03T07:42:32.796Z,14.58
2014-10-03T07:43:37.485Z,14.59
2014-10-03T07:44:42.175Z,14.06
2014-10-03T07:45:46.865Z,13.75
2014-10-03T07:46:51.867Z,14.04
2014-10-03T07:47:56.557Z,13.94
2014-10-03T07:49:01.262Z,14.24
2014-10-03T07:50:05.952Z,14.14
2014-10-03T07:51:10.657Z,14.17
2014-10-03T07:52:15.362Z,14.28
2014-10-03T07:53:20.068Z,14.57
2014-10-03T07:54:24.756Z,14.74
2014-10-03T07:55:29.463Z,15.24
2014-10-03T07:56:34.152Z,15.28
2014-10-03T07:57:38.841Z,15.01
2014-10-03T07:58:43.547Z,14.98
2014-10-03T07:59:48.533Z,14.78
2014-10-03T08:00:53.223Z,14.62
2014-10-03T08:01:57.928Z,14.51
2014-10-03T08:03:02.616Z,14.54
2014-10-03T08:04:07.322Z,14.42
2014-10-03T08:05:12.012Z,14.46
2014-10-03T08:06:16.701Z,14.55
2014-10-03T08:07:21.406Z,14.55
2014-10-03T08:08:26.097Z,14.36
2014-10-03T08:09:31.082Z,13.82
2014-10-03T08:10:36.101Z,14.12
2014-10-03T08:11:40.805Z,14.22
2014-10-03T08:12:45.495Z,14.4
2014-10-03T08:13:50.201Z,14.69
2014-10-03T08:14:54.889Z,14.98
2014-10-03T08:15:59.595Z,14.82
2014-10-03T08:17:04.285Z,14.64
2014-10-03T08:18:08.990Z,14.4
2014-10-03T08:19:13.679Z,14.4
2014-10-03T08:20:18.385Z,14.5
2014-10-03T08:21:23.074Z,14.76
2014-10-03T08:22:27.779Z,14.57
2014-10-03T08:23:32.484Z,14.66
2014-10-03T08:24:37.189Z,15.03
2014-10-03T08:25:41.896Z,15.04
2014-10-03T08:26:46.601Z,14.86
2014-10-03T08:27:51.320Z,14.83
2014-10-03T08:28:56.041Z,14.91
2014-10-03T08:30:00.732Z,14.92
2014-10-03T08:31:05.437Z,15.03
2014-10-03T08:32:10.141Z,15.16
2014-10-03T08:33:15.128Z,15.44
2014-10-03T08:34:19.833Z,15.54
2014-10-03T08:35:24.539Z,15.41
2014-10-03T08:36:29.244Z,15.39
2014-10-03T08:37:33.933Z,15.66
2014-10-03T08:38:38.638Z,16.1
2014-10-03T08:39:43.343Z,16.02
2014-10-03T08:40:48.049Z,15.91
2014-10-03T08:41:52.754Z,15.79
2014-10-03T08:42:57.460Z,15.93
2014-10-03T08:44:02.165Z,16.41
2014-10-03T08:45:06.870Z,16.44
2014-10-03T08:46:11.590Z,16.18
2014-10-03T08:47:16.279Z,16.17
2014-10-03T08:48:20.828Z,16.54
2014-10-03T08:49:25.534Z,15.32
2014-10-03T08:50:30.239Z,15.28
2014-10-03T08:51:34.960Z,15.64
2014-10-03T08:52:39.665Z,15.68
2014-10-03T08:53:44.386Z,15.71
2014-10-03T08:54:49.076Z,15.82
2014-10-03T08:55:53.781Z,15.82
2014-10-03T08:56:58.487Z,15.93
2014-10-03T08:58:03.488Z,15.86
2014-10-03T08:59:08.210Z,15.94
2014-10-03T09:00:13.196Z,15.92
2014-10-03T09:01:17.884Z,16.08
2014-10-03T09:02:22.591Z,16.37
2014-10-03T09:03:27.280Z,16.11
2014-10-03T09:04:31.970Z,16.25
2014-10-03T09:05:36.675Z,16.25
2014-10-03T09:06:41.364Z,16.62
2014-10-03T09:07:46.069Z,16.72
2014-10-03T09:08:50.759Z,16.62
2014-10-03T09:09:55.464Z,16.81
2014-10-03T09:11:00.153Z,17.02
2014-10-03T09:12:04.860Z,17.12
2014-10-03T09:13:09.549Z,17.29
2014-10-03T09:14:14.253Z,17.29
2014-10-03T09:15:18.944Z,17.32
2014-10-03T09:16:23.648Z,17.58
2014-10-03T09:17:28.337Z,17.78
2014-10-03T09:18:33.043Z,17.54
2014-10-03T09:19:37.733Z,17.44
2014-10-03T09:20:42.438Z,17.52
2014-10-03T09:21:47.128Z,17.42
2014-10-03T09:22:51.833Z,17.49
2014-10-03T09:23:56.820Z,17.45
2014-10-03T09:25:01.524Z,17.62
2014-10-03T09:26:06.214Z,17.8
2014-10-03T09:27:10.919Z,18.34
2014-10-03T09:28:15.624Z,18.45
2014-10-03T09:29:20.313Z,18.46
2014-10-03T09:30:25.020Z,18.31
2014-10-03T09:31:29.709Z,17.86
2014-10-03T09:32:34.429Z,17.96
2014-10-03T09:33:39.118Z,18.34
2014-10-03T09:34:43.824Z,18.34
2014-10-03T09:35:48.514Z,18.44
2014-10-03T09:36:53.219Z,18.56
2014-10-03T09:37:57.909Z,18.52
2014-10-03T09:39:02.911Z,18.35
2014-10-03T09:40:07.601Z,18.54
2014-10-03T09:41:12.305Z,18.42
2014-10-03T09:42:17.292Z,18.59
2014-10-03T09:43:22.279Z,18.55
2014-10-03T09:44:26.983Z,18.6
2014-10-03T09:45:31.969Z,18.6
2014-10-03T09:46:36.660Z,18.84
2014-10-03T09:47:41.365Z,18.63
2014-10-03T09:48:46.069Z,18.62
2014-10-03T09:49:51.057Z,18.76
2014-10-03T09:50:55.762Z,19.34
2014-10-03T09:52:00.451Z,19.18
2014-10-03T09:53:05.156Z,19.63
2014-10-03T09:54:09.877Z,19.75
2014-10-03T09:55:14.567Z,19.94
2014-10-03T09:56:19.273Z,19.62
2014-10-03T09:57:23.961Z,19.84
2014-10-03T09:58:28.666Z,19.4
2014-10-03T09:59:33.654Z,18.27
2014-10-03T10:00:38.359Z,18.37
2014-10-03T10:01:43.063Z,18.58
2014-10-03T10:02:47.753Z,19.12
2014-10-03T10:03:51.755Z,19.01
2014-10-03T10:04:56.461Z,19.47
2014-10-03T10:06:01.166Z,19.47
2014-10-03T10:07:05.855Z,19.34
2014-10-03T10:08:11.155Z,19.44
2014-10-03T10:09:15.859Z,19.5
2014-10-03T10:10:20.549Z,19.62
2014-10-03T10:11:25.255Z,19.65
2014-10-03T10:12:29.943Z,19.35
2014-10-03T10:13:34.648Z,19.15
2014-10-03T10:14:39.355Z,19.35
2014-10-03T10:15:44.044Z,19.49
2014-10-03T10:16:48.749Z,19.21
2014-10-03T10:17:53.439Z,19.76
2014-10-03T10:18:58.144Z,19.22
2014-10-03T10:20:02.849Z,19.77
2014-10-03T10:21:07.554Z,20
2014-10-03T10:22:12.556Z,20.32
2014-10-03T10:23:17.542Z,20.76
2014-10-03T10:24:22.248Z,20.56
2014-10-03T10:25:26.954Z,20.32
2014-10-03T10:26:31.642Z,19.98
2014-10-03T10:27:36.644Z,20.62
2014-10-03T10:28:41.350Z,20.91
2014-10-03T10:29:46.040Z,20.81
2014-10-03T10:30:50.745Z,20.04
2014-10-03T10:31:55.746Z,20.57
2014-10-03T10:33:00.436Z,20.43
2014-10-03T10:34:05.142Z,20.6
2014-10-03T10:35:09.847Z,19.8
2014-10-03T10:36:14.552Z,19.92
2014-10-03T10:37:18.554Z,20.18
2014-10-03T10:38:23.259Z,20.79
2014-10-03T10:39:27.965Z,21.06
2014-10-03T10:40:32.669Z,20.94
2014-10-03T10:41:37.374Z,20.39
2014-10-03T10:42:41.393Z,20.62
2014-10-03T10:43:46.097Z,20.72
2014-10-03T10:44:50.833Z,20.38
2014-10-03T10:45:55.540Z,20.59
2014-10-03T10:47:00.245Z,20.95
2014-10-03T10:48:05.247Z,21.16
2014-10-03T10:49:10.233Z,21.49
2014-10-03T10:50:14.953Z,21.48
2014-10-03T10:51:19.643Z,21.34
2014-10-03T10:52:24.364Z,21.3
2014-10-03T10:53:29.257Z,21.14
2014-10-03T10:54:34.149Z,20.82
2014-10-03T10:55:38.870Z,21.1
2014-10-03T10:56:43.575Z,20.99
2014-10-03T10:57:48.296Z,21.57
2014-10-03T10:58:53.002Z,21.7
2014-10-03T10:59:57.706Z,21.4
2014-10-03T11:01:02.428Z,21.11
2014-10-03T11:02:07.149Z,20.85
2014-10-03T11:03:11.869Z,21.31
2014-10-03T11:04:16.589Z,20.7
2014-10-03T11:05:21.295Z,20.91
2014-10-03T11:06:26.016Z,21.07
2014-10-03T11:07:30.721Z,21.36
2014-10-03T11:08:35.489Z,21.56
2014-10-03T11:09:40.210Z,21.27
2014-10-03T11:10:44.916Z,20.99
2014-10-03T11:11:49.639Z,21.02
2014-10-03T11:12:54.401Z,21.14
2014-10-03T11:13:59.163Z,21.52
2014-10-03T11:15:03.909Z,21.89
2014-10-03T11:16:08.688Z,22
2014-10-03T11:17:13.413Z,21.2
2014-10-03T11:18:18.132Z,21.38
2014-10-03T11:19:23.133Z,21.18
2014-10-03T11:20:27.855Z,21.68
2014-10-03T11:21:32.557Z,21.92
2014-10-03T11:22:37.267Z,21.84
2014-10-03T11:23:41.978Z,21.88
2014-10-03T11:24:46.970Z,21.89
2014-10-03T11:25:51.681Z,22.18
2014-10-03T11:26:56.389Z,22.31
2014-10-03T11:28:01.080Z,21.6
2014-10-03T11:29:05.803Z,21.74
2014-10-03T11:30:10.495Z,21.96
2014-10-03T11:31:15.201Z,21.9
2014-10-03T11:32:19.907Z,21.71
2014-10-03T11:33:24.613Z,21.91
2014-10-03T11:34:29.319Z,21.58
2014-10-03T11:35:34.307Z,21.64
2014-10-03T11:36:39.013Z,21.21
2014-10-03T11:37:43.718Z,20.84
2014-10-03T11:38:48.407Z,21.02
2014-10-03T11:39:53.113Z,21.45
2014-10-03T11:40:57.820Z,21.54
2014-10-03T11:42:02.525Z,22.03
2014-10-03T11:43:07.213Z,22.39
2014-10-03T11:44:11.919Z,22.49
2014-10-03T11:45:16.624Z,21.85
2014-10-03T11:46:21.330Z,21.78
2014-10-03T11:47:25.878Z,22.07
2014-10-03T11:48:30.584Z,22.21
2014-10-03T11:49:35.289Z,22.66
2014-10-03T11:50:40.276Z,22.06
2014-10-03T11:51:44.980Z,21.93
2014-10-03T11:52:49.982Z,22.4
2014-10-03T11:53:54.673Z,22.58
2014-10-03T11:54:59.378Z,22.23
2014-10-03T11:56:04.083Z,22.34
2014-10-03T11:57:08.788Z,22.32
2014-10-03T11:58:13.493Z,22.43
2014-10-03T11:59:18.183Z,22.57
2014-10-03T12:00:23.185Z,22.37
2014-10-03T12:01:27.890Z,22.21
2014-10-03T12:02:32.595Z,21.92
2014-10-03T12:03:37.300Z,21.62
2014-10-03T12:04:41.990Z,22.06
2014-10-03T12:05:46.695Z,21.83
2014-10-03T12:06:51.400Z,21.73
2014-10-03T12:07:56.403Z,21.9
2014-10-03T12:09:01.107Z,21.94
2014-10-03T12:10:05.813Z,21.38
2014-10-03T12:11:10.549Z,22.06
2014-10-03T12:12:15.239Z,22.39
2014-10-03T12:13:19.944Z,22.29
2014-10-03T12:14:24.930Z,22.46
2014-10-03T12:15:29.636Z,22.39
2014-10-03T12:16:34.326Z,22.79
2014-10-03T12:17:39.030Z,22.96
2014-10-03T12:18:44.017Z,22.45
2014-10-03T12:19:48.722Z,22.98
2014-10-03T12:20:53.427Z,22.87
2014-10-03T12:21:58.133Z,22.55
2014-10-03T12:23:02.838Z,21.62
2014-10-03T12:24:07.543Z,22.3
2014-10-03T12:25:12.530Z,22.42
2014-10-03T12:26:17.235Z,22.43
2014-10-03T12:27:21.923Z,22.76
2014-10-03T12:28:26.926Z,22.64
2014-10-03T12:29:31.616Z,22.57
2014-10-03T12:30:36.618Z,22.72
2014-10-03T12:31:41.323Z,22.73
2014-10-03T12:32:46.028Z,21.93
2014-10-03T12:33:50.717Z,22.17
2014-10-03T12:34:55.423Z,22.72
2014-10-03T12:36:00.128Z,22.92
2014-10-03T12:37:04.442Z,22.74
2014-10-03T12:38:09.164Z,22
2014-10-03T12:39:13.868Z,22.39
2014-10-03T12:40:18.559Z,22.4
2014-10-03T12:41:23.279Z,22.55
2014-10-03T12:42:28.266Z,22.22
2014-10-03T12:43:33.268Z,22.08
2014-10-03T12:44:38.004Z,22.21
2014-10-03T12:45:42.709Z,21.81
2014-10-03T12:46:47.414Z,22.27
2014-10-03T12:47:52.119Z,22.42
2014-10-03T12:48:56.826Z,22.8
2014-10-03T12:50:01.531Z,22.86
2014-10-03T12:51:06.235Z,22.61
2014-10-03T12:52:10.924Z,22.5
2014-10-03T12:53:15.629Z,22.6
2014-10-03T12:54:20.351Z,22.69
2014-10-03T12:55:25.338Z,22.48
2014-10-03T12:56:30.043Z,22.77
2014-10-03T12:57:34.748Z,23.1
2014-10-03T12:58:39.469Z,22.95
2014-10-03T12:59:44.174Z,22.83
2014-10-03T13:00:48.879Z,23.07
2014-10-03T13:01:53.584Z,22.94
2014-10-03T13:02:58.337Z,22.64
2014-10-03T13:04:03.042Z,22.26
2014-10-03T13:05:07.746Z,22.19
2014-10-03T13:06:12.451Z,21.93
2014-10-03T13:07:16.486Z,21.81
2014-10-03T13:08:21.191Z,22.16
2014-10-03T13:09:25.207Z,21.94
2014-10-03T13:10:29.928Z,22.39
2014-10-03T13:11:34.633Z,22.74
2014-10-03T13:12:39.338Z,22.08
2014-10-03T13:13:44.044Z,22.36
2014-10-03T13:14:48.750Z,22.58
2014-10-03T13:15:53.455Z,22.57
2014-10-03T13:16:58.160Z,22.65
2014-10-03T13:18:02.865Z,22.57
2014-10-03T13:19:07.587Z,22.92
2014-10-03T13:20:12.291Z,23.08
2014-10-03T13:21:16.996Z,23.07
2014-10-03T13:22:21.702Z,23.27
2014-10-03T13:23:26.406Z,22.83
2014-10-03T13:24:30.956Z,22.48
2014-10-03T13:25:34.974Z,22.1
2014-10-03T13:26:39.693Z,22.58
2014-10-03T13:27:44.400Z,22.82
2014-10-03T13:28:49.105Z,22.47
2014-10-03T13:29:53.825Z,22.62
2014-10-03T13:30:58.531Z,22.88
2014-10-03T13:32:03.236Z,22.56
2014-10-03T13:33:07.941Z,21.96
2014-10-03T13:34:12.708Z,21.8
2014-10-03T13:35:17.414Z,21.94
2014-10-03T13:36:22.119Z,21.24
2014-10-03T13:37:26.824Z,21.78
2014-10-03T13:38:31.513Z,21.81
2014-10-03T13:39:36.219Z,21.98
2014-10-03T13:40:40.909Z,22.35
2014-10-03T13:41:45.614Z,22.66
2014-10-03T13:42:50.319Z,22.48
2014-10-03T13:43:55.306Z,22.28
2014-10-03T13:44:59.995Z,22.58
2014-10-03T13:46:04.700Z,22.71
2014-10-03T13:47:09.405Z,22.75
2014-10-03T13:48:14.095Z,22.7
2014-10-03T13:49:19.097Z,22.58
2014-10-03T13:50:24.083Z,22.69
2014-10-03T13:51:28.788Z,22.38
2014-10-03T13:52:33.479Z,22.15
2014-10-03T13:53:38.184Z,22.15
2014-10-03T13:54:42.889Z,22.22
2014-10-03T13:55:47.890Z,22.18
2014-10-03T13:56:52.581Z,22.64
2014-10-03T13:57:57.286Z,21.88